Time;durP1;ratioP1;P1;durP2;ratioP2;P2;SDS_P1;SDS_P2;PMS_P1;PMS_P2;Temp;Humidity;BMP_temperature;BMP_pressure;BME280_temperature;BME280_humidity;BME280_pressure;Samples;Min_cycle;Max_cycle;Signal;HPM_P1;HPM_P2
2021/04/11 00:02:16;;;;;;;3.25;2.95;;;3.30;99.90;;;;;;5052769;28;20033;-72
2021/04/11 00:04:41;;;;;;;5.07;2.50;;;3.30;99.90;;;;;;5036809;28;20033;-72
2021/04/11 00:07:07;;;;;;;3.55;2.80;;;3.30;99.90;;;;;;5040783;28;20406;-72
2021/04/11 00:09:33;;;;;;;3.00;2.40;;;3.40;99.90;;;;;;5044279;28;20039;-72
2021/04/11 00:11:58;;;;;;;3.65;2.50;;;3.50;99.90;;;;;;5046837;28;20060;-73
2021/04/11 00:14:24;;;;;;;3.53;2.92;;;3.50;99.90;;;;;;5057333;28;20603;-72
2021/04/11 00:16:50;;;;;;;3.40;2.58;;;3.50;99.90;;;;;;5049582;28;20029;-74
2021/04/11 00:19:15;;;;;;;3.65;3.00;;;3.50;99.90;;;;;;5066922;28;20075;-74
2021/04/11 00:21:41;;;;;;;4.97;2.92;;;3.50;99.90;;;;;;5044612;28;20528;-72
2021/04/11 00:24:07;;;;;;;4.72;3.05;;;3.50;99.90;;;;;;5038294;28;20052;-73
2021/04/11 00:26:32;;;;;;;3.95;2.85;;;3.50;99.90;;;;;;5031448;28;20400;-74
2021/04/11 00:28:58;;;;;;;3.97;2.90;;;3.50;99.90;;;;;;5032900;28;20040;-73
2021/04/11 00:31:24;;;;;;;3.28;2.67;;;3.50;99.90;;;;;;5033155;28;20025;-73
2021/04/11 00:33:49;;;;;;;3.78;2.55;;;3.60;99.90;;;;;;5031259;28;20037;-72
2021/04/11 00:36:17;;;;;;;3.45;2.30;;;3.60;99.90;;;;;;5032428;28;20026;-73
2021/04/11 00:38:44;;;;;;;2.95;2.50;;;3.60;99.90;;;;;;5031258;28;20139;-73
2021/04/11 00:41:11;;;;;;;3.42;2.88;;;3.60;99.90;;;;;;5040191;28;20037;-72
2021/04/11 00:43:38;;;;;;;3.15;2.60;;;3.60;99.90;;;;;;5032800;28;20103;-72
2021/04/11 00:46:42;;;;;;;3.80;2.73;;;3.50;99.90;;;;;;5030359;28;20071;-74
2021/04/11 00:49:13;;;;;;;4.57;2.53;;;3.60;99.90;;;;;;5034817;28;20466;-72
2021/04/11 00:51:39;;;;;;;4.43;2.53;;;3.70;99.90;;;;;;5036336;28;20069;-72
2021/04/11 00:54:06;;;;;;;3.13;2.47;;;3.70;99.90;;;;;;5034853;28;20036;-72
2021/04/11 00:56:34;;;;;;;4.18;2.50;;;3.70;99.90;;;;;;5034667;28;20028;-75
2021/04/11 00:59:01;;;;;;;2.45;2.25;;;3.70;99.90;;;;;;5035304;28;20489;-74
2021/04/11 01:01:28;;;;;;;2.90;2.17;;;3.80;99.90;;;;;;5035738;28;20025;-74
2021/04/11 01:03:53;;;;;;;2.97;2.05;;;3.80;99.90;;;;;;5035857;28;20033;-73
2021/04/11 01:06:25;;;;;;;1.75;1.60;;;3.70;99.90;;;;;;5034708;28;20148;-74
2021/04/11 01:08:55;;;;;;;2.33;2.10;;;3.70;99.90;;;;;;5033786;28;20028;-74
2021/04/11 01:11:26;;;;;;;2.78;1.92;;;3.70;99.90;;;;;;5037883;28;20100;-75
2021/04/11 01:14:05;;;;;;;2.72;2.03;;;3.70;99.90;;;;;;5049916;28;20432;-74
2021/04/11 01:16:32;;;;;;;5.10;2.08;;;3.80;99.90;;;;;;5034389;28;20119;-74
2021/04/11 01:18:57;;;;;;;1.92;1.73;;;3.70;99.90;;;;;;5050281;28;20091;-74
2021/04/11 01:21:40;;;;;;;1.67;1.50;;;3.70;99.90;;;;;;5035851;28;20409;-75
2021/04/11 01:24:35;;;;;;;1.50;1.40;;;3.80;99.90;;;;;;5035512;28;20017;-73
2021/04/11 01:27:04;;;;;;;2.30;1.42;;;3.80;99.90;;;;;;5039630;28;20144;-73
2021/04/11 01:29:31;;;;;;;2.13;1.42;;;3.70;99.90;;;;;;5050979;28;20041;-74
2021/04/11 01:31:57;;;;;;;1.50;1.38;;;3.70;99.90;;;;;;5052888;28;20037;-76
2021/04/11 01:34:23;;;;;;;2.17;1.63;;;3.70;99.90;;;;;;5047266;28;20041;-73
2021/04/11 01:36:50;;;;;;;2.33;1.67;;;3.70;99.90;;;;;;5038930;28;20112;-73
2021/04/11 01:39:23;;;;;;;1.40;1.33;;;3.70;99.90;;;;;;5034637;28;20044;-73
2021/04/11 01:41:51;;;;;;;2.10;1.67;;;3.70;99.90;;;;;;5036050;28;20470;-73
2021/04/11 01:44:30;;;;;;;1.92;1.80;;;3.70;99.90;;;;;;5033766;28;20083;-72
2021/04/11 01:46:56;;;;;;;1.67;1.50;;;3.60;99.90;;;;;;5035458;28;20044;-73
2021/04/11 01:49:24;;;;;;;3.08;2.40;;;3.70;99.90;;;;;;5033412;28;20378;-73
2021/04/11 01:52:01;;;;;;;1.17;1.00;;;3.70;99.90;;;;;;5050603;28;20536;-73
2021/04/11 01:54:31;;;;;;;2.17;0.77;;;3.70;99.90;;;;;;5034912;28;20046;-73
2021/04/11 01:56:57;;;;;;;2.75;1.15;;;3.70;99.90;;;;;;5035030;28;20053;-73
2021/04/11 01:59:28;;;;;;;1.75;0.98;;;3.70;99.90;;;;;;5034681;28;20064;-73
2021/04/11 02:01:55;;;;;;;2.67;0.60;;;3.70;99.90;;;;;;5034210;28;20355;-73
2021/04/11 02:04:22;;;;;;;1.73;0.90;;;3.70;99.90;;;;;;5034384;28;20021;-73
2021/04/11 02:06:52;;;;;;;0.80;0.73;;;3.70;99.90;;;;;;5034209;28;20030;-73
2021/04/11 02:09:24;;;;;;;3.03;0.90;;;3.70;99.90;;;;;;5035054;28;20381;-73
2021/04/11 02:11:50;;;;;;;1.30;1.20;;;3.70;99.90;;;;;;5034555;28;20544;-72
2021/04/11 02:14:16;;;;;;;1.25;1.02;;;3.70;99.90;;;;;;5034459;28;20025;-72
2021/04/11 02:16:42;;;;;;;1.55;0.70;;;3.70;99.90;;;;;;5032839;28;20433;-73
2021/04/11 02:19:21;;;;;;;0.95;0.95;;;3.70;99.90;;;;;;5032958;28;20124;-73
2021/04/11 02:21:52;;;;;;;1.08;0.60;;;3.60;99.90;;;;;;5034334;28;20035;-73
2021/04/11 02:24:18;;;;;;;0.80;0.70;;;3.60;99.90;;;;;;5033908;28;20025;-72
2021/04/11 02:26:44;;;;;;;2.97;0.82;;;3.60;99.90;;;;;;5034177;28;20029;-72
2021/04/11 02:29:15;;;;;;;1.00;0.90;;;3.60;99.90;;;;;;5032870;28;20048;-72
2021/04/11 02:31:41;;;;;;;0.50;0.50;;;3.70;99.90;;;;;;5033732;28;20032;-72
2021/04/11 02:34:31;;;;;;;1.73;0.85;;;3.70;99.90;;;;;;5033464;28;20029;-72
2021/04/11 02:37:02;;;;;;;1.52;0.85;;;3.70;99.90;;;;;;5018842;28;20021;-72
2021/04/11 02:39:30;;;;;;;0.82;0.82;;;3.70;99.90;;;;;;5033276;28;20485;-72
2021/04/11 02:41:59;;;;;;;1.38;0.80;;;3.70;99.90;;;;;;5034314;28;20029;-72
2021/04/11 02:44:25;;;;;;;4.35;0.90;;;3.70;99.90;;;;;;5040805;28;20022;-73
2021/04/11 02:46:51;;;;;;;1.48;0.70;;;3.70;99.90;;;;;;5051367;28;20072;-72
2021/04/11 02:49:20;;;;;;;2.25;0.60;;;3.70;99.90;;;;;;5053637;28;20039;-72
2021/04/11 02:51:50;;;;;;;4.57;0.90;;;3.70;99.90;;;;;;5055472;28;20016;-74
2021/04/11 02:54:20;;;;;;;1.33;0.77;;;3.70;99.90;;;;;;5055381;28;20009;-73
2021/04/11 02:56:47;;;;;;;6.07;1.05;;;3.80;99.90;;;;;;5044692;28;20080;-73
2021/04/11 02:59:15;;;;;;;1.27;0.88;;;3.80;99.90;;;;;;5038255;28;20053;-71
2021/04/11 03:01:44;;;;;;;1.63;1.05;;;3.80;99.90;;;;;;5033843;28;20413;-72
2021/04/11 03:04:16;;;;;;;0.60;0.60;;;3.70;99.90;;;;;;5033183;28;20116;-73
2021/04/11 03:06:51;;;;;;;2.30;0.80;;;3.80;99.90;;;;;;5015651;28;20429;-72
2021/04/11 03:09:21;;;;;;;4.13;1.27;;;3.80;99.90;;;;;;5034044;28;20029;-73
2021/04/11 03:11:53;;;;;;;0.77;0.77;;;3.70;99.90;;;;;;5032899;28;20029;-72
2021/04/11 03:14:21;;;;;;;2.92;0.98;;;3.80;99.90;;;;;;5033122;28;20087;-72
2021/04/11 03:16:47;;;;;;;4.15;0.80;;;3.80;99.90;;;;;;5030630;28;20041;-72
2021/04/11 03:19:25;;;;;;;1.45;0.95;;;3.80;99.90;;;;;;5025822;28;20095;-73
2021/04/11 03:21:51;;;;;;;4.43;1.63;;;3.70;99.90;;;;;;5032723;28;20075;-73
2021/04/11 03:24:17;;;;;;;0.57;0.57;;;3.80;99.90;;;;;;5031668;28;20482;-72
2021/04/11 03:26:46;;;;;;;1.75;1.25;;;3.70;99.90;;;;;;5031201;28;20026;-73
2021/04/11 03:29:18;;;;;;;2.00;0.85;;;3.80;99.90;;;;;;5031155;28;20394;-73
2021/04/11 03:32:07;;;;;;;1.15;1.10;;;3.70;99.90;;;;;;5031478;28;20026;-72
2021/04/11 03:34:34;;;;;;;4.15;0.90;;;3.70;99.90;;;;;;5027156;28;20045;-75
2021/04/11 03:37:03;;;;;;;0.40;0.40;;;3.70;99.90;;;;;;5032123;28;20452;-74
2021/04/11 03:39:33;;;;;;;0.82;0.50;;;3.70;99.90;;;;;;5031018;28;20120;-74
2021/04/11 03:41:59;;;;;;;1.17;0.65;;;3.70;99.90;;;;;;5032618;28;20521;-73
2021/04/11 03:44:25;;;;;;;2.83;0.65;;;3.70;99.90;;;;;;5030041;28;20121;-74
2021/04/11 03:47:08;;;;;;;1.00;0.60;;;3.80;99.90;;;;;;5031013;28;20049;-73
2021/04/11 03:49:58;;;;;;;1.05;0.77;;;3.80;99.90;;;;;;5031444;28;20455;-73
2021/04/11 03:52:32;;;;;;;1.10;0.63;;;3.80;99.90;;;;;;5032311;28;20033;-73
2021/04/11 03:55:01;;;;;;;1.17;0.70;;;3.80;99.90;;;;;;5032734;28;20437;-73
2021/04/11 03:57:34;;;;;;;5.80;1.27;;;3.80;99.90;;;;;;5034140;28;20017;-73
2021/04/11 04:00:12;;;;;;;1.85;0.75;;;3.80;99.90;;;;;;5038609;28;20025;-74
2021/04/11 04:02:41;;;;;;;1.30;1.00;;;3.90;99.90;;;;;;5052030;28;20049;-74
2021/04/11 04:05:10;;;;;;;1.85;0.90;;;3.90;99.90;;;;;;5052673;28;20036;-76
2021/04/11 04:07:46;;;;;;;;;;;3.90;99.90;;;;;;5064541;28;20033;-74
2021/04/11 04:10:12;;;;;;;2.15;1.10;;;3.90;99.90;;;;;;5056320;28;19915;-72
2021/04/11 04:13:05;;;;;;;1.90;0.90;;;4.00;99.90;;;;;;5047819;28;20061;-74
2021/04/11 04:16:02;;;;;;;2.92;0.95;;;4.00;99.90;;;;;;5035504;28;20029;-74
2021/04/11 04:18:49;;;;;;;1.58;0.82;;;3.90;99.90;;;;;;5028817;28;20076;-73
2021/04/11 04:21:23;;;;;;;11.18;1.73;;;3.90;99.90;;;;;;5032827;28;20033;-73
2021/04/11 04:23:59;;;;;;;2.90;1.05;;;3.90;99.90;;;;;;5035873;28;20494;-74
2021/04/11 04:26:44;;;;;;;1.85;1.35;;;3.90;99.90;;;;;;5042677;28;20425;-74
2021/04/11 04:29:29;;;;;;;7.38;1.00;;;3.90;99.90;;;;;;5032841;28;20037;-74
2021/04/11 04:31:58;;;;;;;5.43;1.50;;;3.80;99.90;;;;;;5035381;28;20084;-75
2021/04/11 04:34:38;;;;;;;7.78;1.00;;;3.80;99.90;;;;;;5036123;28;20029;-73
2021/04/11 04:37:27;;;;;;;6.53;1.15;;;3.80;99.90;;;;;;5036157;28;20030;-74
2021/04/11 04:40:01;;;;;;;4.82;1.67;;;3.70;99.90;;;;;;5028563;28;20032;-74
2021/04/11 04:42:45;;;;;;;5.20;1.13;;;3.70;99.90;;;;;;5047346;28;20021;-74
2021/04/11 04:45:11;;;;;;;3.17;1.10;;;3.80;99.90;;;;;;5033882;28;20037;-75
2021/04/11 04:48:08;;;;;;;4.05;1.17;;;3.80;99.90;;;;;;5051392;28;20036;-75
2021/04/11 04:50:39;;;;;;;6.00;1.25;;;3.80;99.90;;;;;;5034403;28;20029;-74
2021/04/11 04:53:19;;;;;;;1.55;1.17;;;3.70;99.90;;;;;;5035798;28;20099;-75
2021/04/11 04:55:49;;;;;;;3.88;1.45;;;3.80;99.90;;;;;;5035191;28;20588;-75
2021/04/11 04:58:27;;;;;;;8.98;1.40;;;3.80;99.90;;;;;;5035900;28;20018;-74
2021/04/11 05:01:12;;;;;;;4.28;1.40;;;3.80;99.90;;;;;;5034259;28;20532;-74
2021/04/11 05:03:42;;;;;;;8.63;1.80;;;3.80;99.90;;;;;;5035300;28;20034;-74
2021/04/11 05:06:19;;;;;;;6.70;1.90;;;3.90;99.90;;;;;;5035067;28;20402;-74
2021/04/11 05:09:07;;;;;;;6.35;2.00;;;3.90;99.90;;;;;;5034610;28;20041;-75
2021/04/11 05:11:57;;;;;;;4.30;1.50;;;3.90;99.90;;;;;;5050553;28;20390;-75
2021/04/11 05:14:29;;;;;;;2.85;1.20;;;3.80;99.90;;;;;;5037687;28;20029;-74
2021/04/11 05:17:01;;;;;;;6.55;1.60;;;3.80;99.90;;;;;;5035866;28;20030;-75
2021/04/11 05:19:36;;;;;;;2.17;1.20;;;3.80;99.90;;;;;;5057443;28;20148;-74
2021/04/11 05:22:11;;;;;;;8.57;1.48;;;3.80;99.90;;;;;;5054264;28;20016;-77
2021/04/11 05:24:47;;;;;;;7.80;1.33;;;3.90;99.90;;;;;;5058146;28;20040;-74
2021/04/11 05:27:20;;;;;;;2.08;0.77;;;3.90;99.90;;;;;;5049649;28;20026;-75
2021/04/11 05:29:55;;;;;;;4.28;1.20;;;3.90;99.90;;;;;;5055836;28;20030;-74
2021/04/11 05:32:22;;;;;;;1.30;0.95;;;3.90;99.90;;;;;;5037832;28;20444;-73
2021/04/11 05:34:48;;;;;;;4.25;1.10;;;3.90;99.90;;;;;;5035014;28;20108;-76
2021/04/11 05:37:26;;;;;;;12.85;1.25;;;4.00;99.90;;;;;;5050242;28;20038;-74
2021/04/11 05:40:01;;;;;;;10.90;1.38;;;4.00;99.90;;;;;;5050431;28;20072;-73
2021/04/11 05:42:32;;;;;;;2.40;0.93;;;4.00;99.90;;;;;;5033208;28;20048;-74
2021/04/11 05:45:09;;;;;;;2.30;0.98;;;4.00;99.90;;;;;;5035053;28;20111;-73
2021/04/11 05:47:41;;;;;;;2.45;1.10;;;4.00;99.90;;;;;;5049762;28;20112;-75
2021/04/11 05:50:06;;;;;;;9.75;1.38;;;4.10;99.90;;;;;;5035270;28;20030;-75
2021/04/11 05:52:39;;;;;;;5.90;1.23;;;4.10;99.90;;;;;;5033322;28;20034;-74
2021/04/11 05:55:08;;;;;;;5.70;1.42;;;4.10;99.90;;;;;;5035036;28;20039;-73
2021/04/11 05:57:41;;;;;;;7.05;1.10;;;4.10;99.90;;;;;;5032973;28;20018;-73
2021/04/11 06:00:16;;;;;;;4.13;1.27;;;4.10;99.90;;;;;;5032113;28;20030;-71
2021/04/11 06:02:57;;;;;;;4.57;1.10;;;4.10;99.90;;;;;;5033086;28;20076;-73
2021/04/11 06:05:57;;;;;;;4.15;1.45;;;4.20;99.90;;;;;;5034699;28;20112;-72
2021/04/11 06:08:35;;;;;;;11.77;1.92;;;4.20;99.90;;;;;;5028916;28;20494;-72
2021/04/11 06:11:17;;;;;;;6.32;1.10;;;4.20;99.90;;;;;;5034175;28;20029;-71
2021/04/11 06:14:01;;;;;;;4.82;2.33;;;4.10;99.90;;;;;;5034394;28;20033;-72
2021/04/11 06:16:29;;;;;;;5.53;2.63;;;4.20;99.90;;;;;;5034287;28;20032;-73
2021/04/11 06:18:55;;;;;;;;;;;4.20;99.90;;;;;;5033740;28;20115;-73
2021/04/11 06:21:39;;;;;;;4.18;1.25;;;4.20;99.90;;;;;;5032437;28;19944;-72
2021/04/11 06:24:31;;;;;;;4.63;1.20;;;4.20;99.90;;;;;;5034512;28;20104;-72
2021/04/11 06:27:07;;;;;;;4.65;1.83;;;4.20;99.90;;;;;;5031465;28;20086;-73
2021/04/11 06:29:41;;;;;;;1.95;0.70;;;4.20;99.90;;;;;;5051390;28;20359;-72
2021/04/11 06:32:12;;;;;;;8.25;1.42;;;4.30;99.90;;;;;;5041653;28;20025;-72
2021/04/11 06:34:45;;;;;;;9.73;1.25;;;4.30;99.90;;;;;;5058526;28;20030;-73
2021/04/11 06:37:15;;;;;;;8.70;1.10;;;4.30;99.90;;;;;;5044984;28;20056;-74
2021/04/11 06:39:44;;;;;;;1.95;1.08;;;4.20;99.90;;;;;;5036790;28;20029;-73
2021/04/11 06:42:32;;;;;;;11.70;1.33;;;4.20;99.90;;;;;;5036650;28;20033;-72
2021/04/11 06:45:16;;;;;;;7.65;2.05;;;4.10;99.90;;;;;;5034255;28;20108;-72
2021/04/11 06:48:00;;;;;;;5.90;1.13;;;4.10;99.90;;;;;;5048635;28;20029;-73
2021/04/11 06:50:44;;;;;;;6.15;0.88;;;4.20;99.90;;;;;;5036398;28;20171;-73
2021/04/11 06:53:39;;;;;;;8.10;0.98;;;4.20;99.90;;;;;;5039561;28;20036;-72
2021/04/11 06:56:36;;;;;;;2.08;0.63;;;4.20;99.90;;;;;;5026430;28;20068;-72
2021/04/11 06:59:10;;;;;;;2.25;0.85;;;4.20;99.90;;;;;;5030777;28;20033;-73
2021/04/11 07:02:14;;;;;;;9.82;1.10;;;4.20;99.90;;;;;;5030187;28;20033;-73
2021/04/11 07:05:08;;;;;;;10.93;1.38;;;4.20;99.90;;;;;;5029001;28;20025;-73
2021/04/11 07:08:11;;;;;;;8.40;1.52;;;4.30;99.90;;;;;;5028267;28;20027;-73
2021/04/11 07:11:03;;;;;;;6.63;1.15;;;4.30;99.90;;;;;;5048413;28;20044;-73
2021/04/11 07:14:14;;;;;;;5.00;1.45;;;4.30;99.90;;;;;;5028525;28;20173;-74
2021/04/11 07:17:36;;;;;;;8.65;1.10;;;4.30;99.90;;;;;;5042677;28;20391;-73
2021/04/11 07:20:28;;;;;;;4.05;1.48;;;4.40;99.90;;;;;;5004624;28;20561;-74
2021/04/11 07:23:29;;;;;;;7.18;2.03;;;4.50;99.90;;;;;;5011559;28;20066;-74
2021/04/11 07:26:10;;;;;;;5.32;0.88;;;4.50;99.90;;;;;;5020922;28;20478;-74
2021/04/11 07:28:49;;;;;;;3.65;2.05;;;4.70;99.90;;;;;;5031706;28;20516;-72
2021/04/11 07:31:44;;;;;;;9.85;1.27;;;4.70;99.90;;;;;;5032986;28;20378;-72
2021/04/11 07:34:46;;;;;;;3.10;0.95;;;4.80;99.90;;;;;;5038369;28;20033;-73
2021/04/11 07:37:32;;;;;;;3.80;0.90;;;4.90;99.90;;;;;;5035165;28;20073;-73
2021/04/11 07:40:13;;;;;;;3.45;0.70;;;5.00;99.90;;;;;;5033260;28;20017;-73
2021/04/11 07:43:19;;;;;;;11.13;1.08;;;5.00;99.90;;;;;;5033113;28;20159;-73
2021/04/11 07:46:03;;;;;;;2.53;0.60;;;5.00;99.90;;;;;;5026215;28;20029;-73
2021/04/11 07:49:06;;;;;;;2.80;0.80;;;5.00;99.90;;;;;;5063653;28;20021;-73
2021/04/11 07:51:52;;;;;;;3.83;0.60;;;5.00;99.90;;;;;;5052311;28;20034;-73
2021/04/11 07:54:36;;;;;;;4.15;0.57;;;5.10;99.90;;;;;;5052990;28;20038;-75
2021/04/11 07:57:24;;;;;;;5.60;0.77;;;5.20;99.90;;;;;;5052425;28;20120;-75
2021/04/11 08:00:08;;;;;;;4.68;1.13;;;5.30;99.90;;;;;;5046441;28;20033;-73
2021/04/11 08:03:03;;;;;;;2.67;0.52;;;5.30;99.90;;;;;;5040292;28;20021;-73
2021/04/11 08:05:52;;;;;;;3.83;0.50;;;5.20;99.90;;;;;;5048499;28;20052;-73
2021/04/11 08:08:51;;;;;;;3.50;0.60;;;5.30;99.90;;;;;;5033669;28;20393;-76
2021/04/11 08:11:39;;;;;;;1.85;0.60;;;5.30;99.90;;;;;;5047918;28;20363;-76
2021/04/11 08:14:15;;;;;;;;;;;5.20;99.90;;;;;;5035276;28;20044;-74
2021/04/11 08:16:48;;;;;;;7.10;0.88;;;5.20;99.90;;;;;;5048456;28;20072;-74
2021/04/11 08:19:47;;;;;;;4.93;1.15;;;5.20;99.90;;;;;;5043479;28;20117;-74
2021/04/11 08:22:25;;;;;;;2.08;0.82;;;5.30;99.90;;;;;;5032133;28;20052;-75
2021/04/11 08:25:09;;;;;;;5.35;1.55;;;5.30;99.90;;;;;;5036480;28;20504;-76
2021/04/11 08:28:12;;;;;;;0.43;0.40;;;5.40;99.90;;;;;;5033201;28;20026;-75
2021/04/11 08:30:59;;;;;;;2.33;0.57;;;5.30;99.90;;;;;;5036681;28;20025;-75
2021/04/11 08:33:54;;;;;;;1.88;0.82;;;5.40;99.90;;;;;;5035938;28;20061;-77
2021/04/11 08:36:54;;;;;;;1.00;0.70;;;5.40;99.90;;;;;;5036651;28;20041;-76
2021/04/11 08:39:29;;;;;;;3.00;0.68;;;5.50;99.90;;;;;;5038494;28;20096;-75
2021/04/11 08:42:10;;;;;;;5.55;0.80;;;5.60;99.90;;;;;;5033082;28;20022;-75
2021/04/11 08:44:50;;;;;;;4.10;0.80;;;5.60;99.90;;;;;;5036372;28;20378;-76
2021/04/11 08:47:49;;;;;;;1.75;0.57;;;5.90;99.90;;;;;;5044117;28;20022;-75
2021/04/11 08:50:18;;;;;;;1.95;0.60;;;6.20;99.90;;;;;;5036262;28;20022;-76
2021/04/11 08:53:19;;;;;;;4.25;0.43;;;6.30;99.90;;;;;;5034117;28;20029;-75
2021/04/11 08:55:55;;;;;;;2.33;0.60;;;6.40;99.90;;;;;;5036784;28;20485;-75
2021/04/11 08:58:36;;;;;;;7.40;0.82;;;6.40;99.90;;;;;;5028825;28;20030;-74
2021/04/11 09:01:44;;;;;;;4.45;0.80;;;6.20;99.90;;;;;;5048810;28;20036;-75
2021/04/11 09:04:36;;;;;;;3.25;0.88;;;6.10;99.90;;;;;;4995574;28;20045;-74
2021/04/11 09:07:24;;;;;;;2.38;0.52;;;6.20;99.90;;;;;;5059435;28;20123;-74
2021/04/11 09:09:56;;;;;;;;;;;6.20;99.90;;;;;;5048282;28;20032;-75
2021/04/11 09:12:36;;;;;;;1.65;0.40;;;6.30;99.90;;;;;;5050163;28;19908;-75
2021/04/11 09:15:08;;;;;;;1.58;0.60;;;6.50;99.90;;;;;;5047611;28;20025;-74
2021/04/11 09:17:52;;;;;;;4.90;1.05;;;6.50;99.90;;;;;;5047183;28;20089;-75
2021/04/11 09:20:34;;;;;;;2.20;0.80;;;6.70;99.90;;;;;;5039420;28;20100;-75
2021/04/11 09:23:27;;;;;;;3.08;0.57;;;6.80;99.90;;;;;;5036215;28;20401;-75
2021/04/11 09:26:05;;;;;;;4.50;0.77;;;6.80;99.90;;;;;;5036660;28;20029;-74
2021/04/11 09:28:46;;;;;;;2.25;0.68;;;6.90;99.90;;;;;;5037825;28;20041;-75
2021/04/11 09:31:42;;;;;;;1.90;0.68;;;6.90;99.90;;;;;;5040727;28;20037;-76
2021/04/11 09:34:20;;;;;;;1.33;0.50;;;6.90;99.90;;;;;;5038452;28;20041;-74
2021/04/11 09:36:51;;;;;;;;;;;6.90;99.90;;;;;;5042303;28;20030;-74
2021/04/11 09:39:34;;;;;;;9.55;1.42;;;7.10;99.90;;;;;;5060656;28;19909;-74
2021/04/11 09:42:37;;;;;;;2.10;1.42;;;7.20;99.90;;;;;;5041578;28;20033;-75
2021/04/11 09:45:11;;;;;;;0.95;0.38;;;7.60;99.90;;;;;;5036646;28;20437;-74
2021/04/11 09:47:54;;;;;;;4.90;0.70;;;7.60;99.90;;;;;;5037235;28;20428;-75
2021/04/11 09:50:58;;;;;;;2.50;0.80;;;7.10;99.90;;;;;;5048631;28;20037;-75
2021/04/11 09:53:42;;;;;;;2.13;0.73;;;7.10;99.90;;;;;;4994441;28;20043;-74
2021/04/11 09:56:15;;;;;;;3.28;0.55;;;6.90;99.90;;;;;;4995488;28;20042;-75
2021/04/11 09:58:59;;;;;;;3.33;0.50;;;6.90;99.90;;;;;;5015148;28;20398;-74
2021/04/11 10:01:24;;;;;;;6.15;0.85;;;7.00;99.90;;;;;;5045077;28;20041;-74
2021/04/11 10:04:26;;;;;;;1.70;0.68;;;6.90;99.90;;;;;;5042165;28;20041;-73
2021/04/11 10:07:02;;;;;;;7.32;0.88;;;6.90;99.90;;;;;;5040928;28;20065;-74
2021/04/11 10:09:41;;;;;;;2.97;0.70;;;6.70;99.90;;;;;;5046759;28;20557;-74
2021/04/11 10:12:43;;;;;;;4.88;0.50;;;6.80;99.90;;;;;;5030854;28;20026;-74
2021/04/11 10:15:36;;;;;;;3.72;0.63;;;6.90;99.90;;;;;;5019559;28;20038;-74
2021/04/11 10:18:05;;;;;;;1.38;0.47;;;6.90;99.90;;;;;;5032769;28;20117;-74
2021/04/11 10:20:56;;;;;;;3.15;0.40;;;6.90;99.90;;;;;;5038491;28;20037;-75
2021/04/11 10:23:42;;;;;;;3.83;0.50;;;7.00;99.90;;;;;;5033944;28;20032;-76
2021/04/11 10:26:57;;;;;;;3.13;1.52;;;7.00;99.90;;;;;;5035189;28;20044;-76
2021/04/11 10:29:26;;;;;;;5.75;0.95;;;7.00;99.90;;;;;;5007017;28;20038;-76
2021/04/11 10:32:08;;;;;;;3.33;0.60;;;7.30;99.90;;;;;;5042140;28;20033;-76
2021/04/11 10:34:55;;;;;;;0.40;0.40;;;7.30;99.90;;;;;;5048251;28;20021;-75
2021/04/11 10:37:39;;;;;;;4.13;0.70;;;7.30;99.90;;;;;;5051744;28;20109;-76
2021/04/11 10:40:27;;;;;;;2.72;0.82;;;7.00;99.90;;;;;;5054928;28;20036;-77
2021/04/11 10:43:18;;;;;;;3.58;0.50;;;6.90;99.90;;;;;;5036776;28;20057;-76
2021/04/11 10:46:04;;;;;;;0.85;0.50;;;6.80;99.90;;;;;;5042500;28;20040;-76
2021/04/11 10:48:51;;;;;;;3.30;0.40;;;6.90;99.90;;;;;;5036334;28;20030;-76
2021/04/11 10:51:36;;;;;;;5.43;0.60;;;7.10;99.90;;;;;;5029534;28;20167;-76
2021/04/11 10:54:13;;;;;;;3.10;0.75;;;7.30;99.90;;;;;;5047615;28;20040;-76
2021/04/11 10:56:48;;;;;;;3.33;0.85;;;7.50;99.90;;;;;;5035224;28;20033;-76
2021/04/11 10:59:51;;;;;;;1.02;0.50;;;7.40;99.90;;;;;;5034927;28;20382;-76
2021/04/11 11:03:07;;;;;;;2.58;0.68;;;7.40;99.90;;;;;;5049480;28;20029;-76
2021/04/11 11:05:51;;;;;;;1.42;0.40;;;7.00;99.90;;;;;;5034189;28;20583;-76
2021/04/11 11:08:44;;;;;;;5.32;0.50;;;6.80;99.90;;;;;;5027712;28;20390;-75
2021/04/11 11:11:33;;;;;;;4.00;0.35;;;6.80;99.90;;;;;;5026717;28;20112;-76
2021/04/11 11:14:29;;;;;;;2.67;0.40;;;7.00;99.90;;;;;;5027005;28;20041;-77
2021/04/11 11:17:15;;;;;;;2.80;0.40;;;7.10;99.90;;;;;;5025383;28;20930;-75
2021/04/11 11:20:05;;;;;;;4.53;0.63;;;7.30;99.90;;;;;;5040494;28;20048;-74
2021/04/11 11:22:52;;;;;;;1.67;0.60;;;7.40;99.90;;;;;;5026069;28;20034;-74
2021/04/11 11:25:51;;;;;;;3.22;0.63;;;7.70;99.90;;;;;;5029119;28;20053;-77
2021/04/11 11:28:35;;;;;;;4.15;0.60;;;7.80;99.90;;;;;;5022894;28;20478;-76
2021/04/11 11:31:20;;;;;;;2.42;0.50;;;7.90;99.90;;;;;;5056386;28;20037;-75
2021/04/11 11:34:09;;;;;;;2.13;0.75;;;7.90;99.90;;;;;;5041715;28;20370;-76
2021/04/11 11:36:42;;;;;;;4.85;0.50;;;8.00;99.90;;;;;;5047688;28;20489;-77
2021/04/11 11:39:49;;;;;;;3.22;0.45;;;8.00;99.90;;;;;;5044081;28;20088;-75
2021/04/11 11:42:21;;;;;;;1.08;0.45;;;7.80;99.90;;;;;;5006753;28;20037;-76
2021/04/11 11:45:13;;;;;;;4.47;0.50;;;7.80;99.90;;;;;;5042646;28;20033;-75
2021/04/11 11:47:48;;;;;;;2.95;0.40;;;7.90;99.90;;;;;;5026523;28;20037;-76
2021/04/11 11:50:22;;;;;;;1.92;0.63;;;7.90;99.90;;;;;;5057355;28;20040;-76
2021/04/11 11:52:47;;;;;;;0.50;0.32;;;8.10;99.90;;;;;;5045666;28;20040;-76
2021/04/11 11:55:33;;;;;;;1.73;0.38;;;8.20;99.90;;;;;;5036655;28;20399;-75
2021/04/11 11:58:20;;;;;;;0.75;0.25;;;8.20;99.90;;;;;;5071701;28;20037;-76
2021/04/11 12:01:05;;;;;;;3.90;0.40;;;8.30;99.90;;;;;;5052600;28;20032;-75
2021/04/11 12:03:33;;;;;;;8.20;0.57;;;8.20;99.90;;;;;;5059746;28;20103;-76
2021/04/11 12:06:24;;;;;;;2.00;0.50;;;8.10;99.90;;;;;;5046396;28;20029;-76
2021/04/11 12:09:17;;;;;;;2.25;0.52;;;8.00;99.90;;;;;;5037119;28;20104;-76
2021/04/11 12:11:48;;;;;;;3.08;0.70;;;7.80;99.90;;;;;;5034966;28;20025;-77
2021/04/11 12:14:29;;;;;;;3.25;0.50;;;7.60;99.90;;;;;;5050949;28;20111;-75
2021/04/11 12:17:21;;;;;;;5.63;1.00;;;7.70;99.90;;;;;;5033996;28;20686;-76
2021/04/11 12:20:11;;;;;;;7.47;0.80;;;7.80;99.90;;;;;;5030959;28;20128;-75
2021/04/11 12:23:11;;;;;;;3.40;1.10;;;8.10;99.90;;;;;;5031170;28;20069;-75
2021/04/11 12:25:37;;;;;;;1.60;0.52;;;8.80;99.90;;;;;;5028292;28;20120;-76
2021/04/11 12:28:12;;;;;;;3.45;0.45;;;9.10;99.90;;;;;;5037400;28;20128;-75
2021/04/11 12:30:41;;;;;;;6.45;0.60;;;9.10;99.90;;;;;;5053625;28;20523;-76
2021/04/11 12:33:25;;;;;;;1.23;0.40;;;9.00;99.90;;;;;;5034991;28;20402;-77
2021/04/11 12:36:16;;;;;;;1.10;0.95;;;8.90;99.90;;;;;;5042087;28;20440;-76
2021/04/11 12:38:46;;;;;;;0.95;0.30;;;9.00;99.90;;;;;;5032282;28;20021;-76
2021/04/11 12:41:38;;;;;;;2.85;0.77;;;8.90;99.90;;;;;;5032735;28;20056;-76
2021/04/11 12:44:22;;;;;;;4.53;0.60;;;8.50;99.90;;;;;;5034355;28;20037;-75
2021/04/11 12:47:16;;;;;;;1.77;0.63;;;8.60;99.90;;;;;;5040053;28;20025;-76
2021/04/11 12:50:03;;;;;;;4.95;0.93;;;8.80;99.90;;;;;;5034897;28;20022;-75
2021/04/11 12:52:38;;;;;;;2.42;0.38;;;8.80;99.90;;;;;;5046907;28;20440;-76
2021/04/11 12:55:32;;;;;;;1.92;0.43;;;8.70;99.90;;;;;;5046384;28;21259;-75
2021/04/11 12:58:18;;;;;;;3.95;0.55;;;8.60;99.90;;;;;;5002415;28;20061;-75
2021/04/11 13:00:59;;;;;;;0.95;0.43;;;8.70;99.90;;;;;;5027670;28;20116;-77
2021/04/11 13:03:50;;;;;;;0.95;0.43;;;8.60;99.90;;;;;;5021475;28;20441;-76
2021/04/11 13:06:50;;;;;;;1.15;0.50;;;8.70;99.90;;;;;;5037866;28;20477;-77
2021/04/11 13:09:34;;;;;;;2.33;0.80;;;9.20;99.90;;;;;;5023260;28;20037;-76
2021/04/11 13:12:14;;;;;;;2.38;0.95;;;9.30;99.90;;;;;;5032598;28;20180;-76
2021/04/11 13:14:53;;;;;;;0.85;0.50;;;9.30;99.90;;;;;;5026481;28;20029;-76
2021/04/11 13:17:29;;;;;;;2.90;0.47;;;8.90;99.90;;;;;;5035654;28;20041;-76
2021/04/11 13:20:00;;;;;;;2.72;0.70;;;8.70;99.90;;;;;;5034324;28;20018;-76
2021/04/11 13:22:30;;;;;;;0.80;0.50;;;8.60;99.90;;;;;;5036257;28;20122;-76
2021/04/11 13:25:14;;;;;;;0.55;0.55;;;8.60;99.90;;;;;;5035092;28;20455;-76
2021/04/11 13:27:53;;;;;;;2.28;0.68;;;9.00;99.90;;;;;;5030603;28;20203;-74
2021/04/11 13:30:32;;;;;;;0.85;0.47;;;9.60;99.90;;;;;;5062112;28;20048;-76
2021/04/11 13:33:03;;;;;;;3.95;0.85;;;9.70;99.90;;;;;;5058229;28;20032;-76
2021/04/11 13:35:38;;;;;;;2.22;0.40;;;9.80;99.90;;;;;;5055813;28;20033;-76
2021/04/11 13:38:12;;;;;;;3.67;0.60;;;9.70;99.90;;;;;;5054602;28;20041;-76
2021/04/11 13:40:39;;;;;;;4.00;1.45;;;9.40;99.90;;;;;;5054779;28;20009;-76
2021/04/11 13:43:10;;;;;;;1.85;0.57;;;8.90;99.90;;;;;;5031005;28;20065;-76
2021/04/11 13:45:51;;;;;;;0.80;0.40;;;8.50;99.90;;;;;;5034967;28;20032;-74
2021/04/11 13:48:29;;;;;;;1.60;0.43;;;8.40;99.90;;;;;;5034213;28;20030;-74
2021/04/11 13:51:03;;;;;;;2.78;0.98;;;8.40;99.90;;;;;;5033883;28;20418;-74
2021/04/11 13:53:48;;;;;;;4.15;0.70;;;8.50;99.90;;;;;;5037247;28;20029;-74
2021/04/11 13:56:47;;;;;;;4.90;0.77;;;8.60;99.90;;;;;;5033432;28;20395;-74
2021/04/11 13:59:24;;;;;;;1.75;0.70;;;8.70;99.90;;;;;;5038605;28;20029;-75
2021/04/11 14:01:55;;;;;;;2.85;0.47;;;8.90;99.90;;;;;;5033266;28;20091;-74